CHICAGO O'HARE INTL

KORD (ORD)
Chicago, Illinois
Towered

Vatsim Metar:
KORD 311551Z 10007KT 10SM FEW250 16/03 A3037 RMK AO2 SLP284 T01610028 $

No ATC Online

Traffic

Inbound:
Ident
Type
Name
ETA
Phase
ENY3782
E275
Ryan Gonzalez KLAX
17:03 Z
Descent
UAL6
A319/L
Pat Schoof KPDK
17:32 Z
Cruse
UAL263
B752/Z
David Hadawi KSUA
Boarding
FDX160
H/B763/L
Adrian
18:30 Z
Cruse
BAW295
H/B744/L
Stephan EHTW
18:27 Z
Cruse
BAW295A
H/B744/L
Will Tearne EGSC
18:47 Z
Cruse
AAL2707
B738/E
Ryan Wilson EGCC
Boarding
CAL5232
H/B744/S
863800
21:29 Z
Climb
CLX67M
H/B744/L
Niklas Andersen EKCH
22:00 Z
Cruse
TAP243
H/A339/L
Christian Winkler EDDS
22:18 Z
Cruse

Outbound:
Ident
Type
Name
Destination
Phase
UAL1906
H/B77L/L
Andrew West KORD
KSFO
Boarding
AAL814
A321/L
Matt Harpt KBIL
KPHX
Boarding